Terminal Aerodrome Forecast
Issued by NWS Sterling, VA

Current Version | Previous Version | Graphics & Text | Print | Product List | Glossary On
Versions: 1 2 3 4 5 6 7 8 9 10 11 12 13 14 15 16 17 18 19 20 21 22 23 24 25 26 27
969
FTUS41 KLWX 290858 AAA
TAFIAD
TAF AMD
KIAD 290858Z 2909/3012 11010G20KT 3SM +SHRA VCTS OVC008CB
     FM291500 07014G20KT 3SM SHRA OVC008=

USA.gov is the U.S. government's official web portal to all federal, state and local government web resources and services.